createdAt,value
2022-12-24T00:01:01.795Z,16.80
2022-12-24T00:03:29.080Z,16.90
2022-12-24T00:05:56.087Z,16.80
2022-12-24T00:08:23.056Z,16.90
2022-12-24T00:10:53.878Z,16.90
2022-12-24T00:13:21.289Z,16.90
2022-12-24T00:15:48.487Z,16.90
2022-12-24T00:18:15.468Z,16.90
2022-12-24T00:20:45.249Z,16.90
2022-12-24T00:23:12.144Z,16.90
2022-12-24T00:25:38.993Z,16.90
2022-12-24T00:28:05.832Z,16.90
2022-12-24T00:30:32.727Z,17.00
2022-12-24T00:32:59.614Z,16.90
2022-12-24T00:35:26.484Z,17.00
2022-12-24T00:37:53.310Z,16.90
2022-12-24T00:40:20.206Z,16.90
2022-12-24T00:42:47.072Z,16.90
2022-12-24T00:45:14.390Z,16.90
2022-12-24T00:47:41.402Z,16.90
2022-12-24T00:50:09.054Z,16.90
2022-12-24T00:52:36.194Z,16.90
2022-12-24T00:55:03.356Z,16.90
2022-12-24T00:57:30.375Z,16.90
2022-12-24T00:59:57.270Z,16.90
2022-12-24T01:02:24.249Z,16.90
2022-12-24T01:05:10.214Z,16.90
2022-12-24T01:07:45.035Z,16.90
2022-12-24T01:10:15.587Z,16.80
2022-12-24T01:12:43.099Z,16.90
2022-12-24T01:15:11.340Z,16.90
2022-12-24T01:17:38.411Z,16.90
2022-12-24T01:20:07.582Z,16.90
2022-12-24T01:22:34.579Z,16.90
2022-12-24T01:25:01.487Z,16.90
2022-12-24T01:27:28.406Z,16.90
2022-12-24T01:29:55.221Z,16.90
2022-12-24T01:32:22.090Z,16.90
2022-12-24T01:34:48.927Z,16.90
2022-12-24T01:37:15.798Z,16.90
2022-12-24T01:39:42.686Z,16.90
2022-12-24T01:42:39.165Z,16.90
2022-12-24T01:45:42.276Z,16.90
2022-12-24T01:48:24.772Z,16.90
2022-12-24T01:50:57.898Z,16.90
2022-12-24T01:53:25.073Z,16.90
2022-12-24T01:55:53.306Z,16.90
2022-12-24T01:58:22.976Z,16.90
2022-12-24T02:00:49.811Z,16.90
2022-12-24T02:03:17.278Z,17.00
2022-12-24T02:06:02.386Z,16.90
2022-12-24T02:08:40.169Z,16.90
2022-12-24T02:11:15.126Z,16.90
2022-12-24T02:13:46.239Z,16.90
2022-12-24T02:16:17.685Z,16.90
2022-12-24T02:19:19.595Z,16.90
2022-12-24T02:22:37.050Z,16.90
2022-12-24T02:25:12.965Z,16.90
2022-12-24T02:28:05.460Z,16.90
2022-12-24T02:30:37.762Z,16.90
2022-12-24T02:33:13.453Z,17.00
2022-12-24T02:36:01.665Z,17.00
2022-12-24T02:38:42.852Z,16.90
2022-12-24T02:41:16.430Z,16.90
2022-12-24T02:43:46.643Z,17.00
2022-12-24T02:46:19.076Z,17.00
2022-12-24T02:48:48.743Z,17.00
2022-12-24T02:51:16.045Z,16.90
2022-12-24T02:53:42.940Z,17.00
2022-12-24T02:56:18.055Z,17.00
2022-12-24T02:58:58.616Z,17.00
2022-12-24T03:01:55.447Z,17.00
2022-12-24T03:04:39.602Z,17.00
2022-12-24T03:07:09.904Z,17.00
2022-12-24T03:09:58.563Z,17.00
2022-12-24T03:12:40.229Z,17.00
2022-12-24T03:15:10.174Z,17.00
2022-12-24T03:17:40.707Z,17.00
2022-12-24T03:20:09.869Z,17.00
2022-12-24T03:22:38.120Z,17.00
2022-12-24T03:25:05.705Z,17.00
2022-12-24T03:27:34.882Z,17.00
2022-12-24T03:30:04.252Z,17.00
2022-12-24T03:32:32.711Z,16.90
2022-12-24T03:34:59.946Z,16.90
2022-12-24T03:37:27.298Z,16.90
2022-12-24T03:39:54.150Z,16.90
2022-12-24T03:42:21.098Z,17.00
2022-12-24T03:44:48.009Z,16.90
2022-12-24T03:47:14.824Z,16.90
2022-12-24T03:49:41.631Z,16.90
2022-12-24T03:52:08.549Z,16.90
2022-12-24T03:54:35.403Z,17.00
2022-12-24T03:57:02.262Z,17.00
2022-12-24T03:59:29.135Z,17.00
2022-12-24T04:01:56.184Z,17.00
2022-12-24T04:04:23.179Z,17.00
2022-12-24T04:06:50.107Z,17.00
2022-12-24T04:09:16.957Z,17.00
2022-12-24T04:11:43.802Z,17.00
2022-12-24T04:14:10.854Z,17.00
2022-12-24T04:16:37.766Z,17.00
2022-12-24T04:19:04.701Z,17.00
2022-12-24T04:21:31.621Z,17.00
2022-12-24T04:23:58.471Z,17.00
2022-12-24T04:26:25.457Z,17.00
2022-12-24T04:28:53.069Z,17.00
2022-12-24T04:31:19.998Z,17.00
2022-12-24T04:33:47.199Z,17.00
2022-12-24T04:36:17.262Z,17.00
2022-12-24T04:38:45.125Z,17.00
2022-12-24T04:41:23.803Z,17.10
2022-12-24T04:43:52.777Z,17.00
2022-12-24T04:46:25.934Z,17.00
2022-12-24T04:48:54.508Z,17.00
2022-12-24T04:51:21.975Z,17.00
2022-12-24T04:53:49.577Z,17.00
2022-12-24T04:56:18.908Z,17.00
2022-12-24T04:58:46.184Z,17.00
2022-12-24T05:01:19.204Z,17.00
2022-12-24T05:03:46.565Z,17.00
2022-12-24T05:06:15.968Z,17.00
2022-12-24T05:08:43.767Z,17.00
2022-12-24T05:11:14.350Z,17.00
2022-12-24T05:13:46.200Z,17.00
2022-12-24T05:16:15.787Z,17.00
2022-12-24T05:18:42.924Z,17.00
2022-12-24T05:21:15.057Z,17.00
2022-12-24T05:24:00.607Z,17.00
2022-12-24T05:26:33.279Z,17.00
2022-12-24T05:29:01.419Z,17.00
2022-12-24T05:31:30.988Z,17.00
2022-12-24T05:33:58.211Z,16.90
2022-12-24T05:36:25.589Z,16.90
2022-12-24T05:38:52.952Z,16.90
2022-12-24T05:41:19.981Z,16.90
2022-12-24T05:43:47.024Z,16.90
2022-12-24T05:46:18.964Z,16.90
2022-12-24T05:48:46.820Z,16.90
2022-12-24T05:51:15.156Z,16.90
2022-12-24T05:53:42.076Z,16.90
2022-12-24T05:56:11.803Z,16.90
2022-12-24T05:58:39.860Z,16.80
2022-12-24T06:01:07.430Z,16.90
2022-12-24T06:03:35.193Z,16.90
2022-12-24T06:06:07.067Z,16.90
2022-12-24T06:08:35.381Z,16.80
2022-12-24T06:11:05.534Z,16.90
2022-12-24T06:13:33.198Z,16.80
2022-12-24T06:16:01.938Z,16.90
2022-12-24T06:18:33.431Z,16.90
2022-12-24T06:21:01.233Z,16.90
2022-12-24T06:23:30.783Z,16.90
2022-12-24T06:26:01.019Z,16.90
2022-12-24T06:28:32.879Z,16.90
2022-12-24T06:31:03.169Z,16.90
2022-12-24T06:33:32.044Z,16.90
2022-12-24T06:35:58.946Z,16.90
2022-12-24T06:38:25.945Z,16.90
2022-12-24T06:40:55.934Z,16.90
2022-12-24T06:43:23.234Z,16.90
2022-12-24T06:45:50.061Z,16.90
2022-12-24T06:48:16.954Z,17.00
2022-12-24T06:50:43.954Z,16.90
2022-12-24T06:53:11.184Z,16.90
2022-12-24T06:55:38.177Z,16.90
2022-12-24T06:58:05.270Z,17.00
2022-12-24T07:00:32.219Z,17.00
2022-12-24T07:02:59.303Z,17.00
2022-12-24T07:05:26.541Z,17.00
2022-12-24T07:07:53.426Z,17.00
2022-12-24T07:10:20.990Z,17.10
2022-12-24T07:12:48.938Z,17.10
2022-12-24T07:15:16.963Z,17.00
2022-12-24T07:17:44.087Z,17.10
2022-12-24T07:20:15.094Z,17.10
2022-12-24T07:22:43.124Z,17.10
2022-12-24T07:25:11.277Z,17.10
2022-12-24T07:27:38.997Z,17.10
2022-12-24T07:30:06.582Z,17.10
2022-12-24T07:32:33.503Z,17.10
2022-12-24T07:35:00.410Z,17.10
2022-12-24T07:37:27.296Z,17.10
2022-12-24T07:39:54.220Z,17.10
2022-12-24T07:42:21.158Z,17.10
2022-12-24T07:44:48.198Z,17.10
2022-12-24T07:47:15.066Z,17.10
2022-12-24T07:49:41.898Z,17.10
2022-12-24T07:52:08.767Z,17.10
2022-12-24T07:54:35.914Z,17.20
2022-12-24T07:57:02.739Z,17.20
2022-12-24T07:59:29.570Z,17.20
2022-12-24T08:01:56.664Z,17.20
2022-12-24T08:04:23.716Z,17.20
2022-12-24T08:06:50.767Z,17.20
2022-12-24T08:09:17.736Z,17.20
2022-12-24T08:11:51.297Z,17.10
2022-12-24T08:14:19.193Z,17.10
2022-12-24T08:16:46.037Z,17.10
2022-12-24T08:19:12.941Z,17.10
2022-12-24T08:21:39.819Z,17.10
2022-12-24T08:24:06.878Z,17.10
2022-12-24T08:26:33.747Z,17.10
2022-12-24T08:29:00.628Z,17.10
2022-12-24T08:31:27.925Z,17.10
2022-12-24T08:33:54.811Z,17.10
2022-12-24T08:36:21.809Z,17.10
2022-12-24T08:38:48.701Z,17.10
2022-12-24T08:41:15.535Z,17.10
2022-12-24T08:43:42.435Z,17.10
2022-12-24T08:46:10.291Z,17.10
2022-12-24T08:48:37.240Z,17.20
2022-12-24T08:51:08.718Z,17.20
2022-12-24T08:53:35.595Z,17.20
2022-12-24T08:56:04.768Z,17.20
2022-12-24T08:58:32.094Z,17.20
2022-12-24T09:00:59.621Z,17.20
2022-12-24T09:03:28.034Z,17.20
2022-12-24T09:05:55.519Z,17.20
2022-12-24T09:08:22.485Z,17.10
2022-12-24T09:10:49.302Z,17.10
2022-12-24T09:13:16.268Z,17.10
2022-12-24T09:15:43.092Z,17.10
2022-12-24T09:18:10.700Z,17.10
2022-12-24T09:20:41.454Z,17.10
2022-12-24T09:23:11.147Z,17.10
2022-12-24T09:25:42.406Z,17.10
2022-12-24T09:28:09.483Z,17.10
2022-12-24T09:30:37.679Z,17.10
2022-12-24T09:33:04.563Z,17.10
2022-12-24T09:35:31.357Z,17.10
2022-12-24T09:38:04.266Z,17.10
2022-12-24T09:40:38.296Z,17.20
2022-12-24T09:43:24.435Z,17.20
2022-12-24T09:45:57.334Z,17.10
2022-12-24T09:48:30.287Z,17.10
2022-12-24T09:51:22.654Z,17.20
2022-12-24T09:53:57.943Z,17.20
2022-12-24T09:56:38.714Z,17.20
2022-12-24T09:59:11.501Z,17.20
2022-12-24T10:01:38.534Z,17.20
2022-12-24T10:04:12.502Z,17.20
2022-12-24T10:06:59.527Z,17.20
2022-12-24T10:09:35.477Z,17.20
2022-12-24T10:12:20.505Z,17.20
2022-12-24T10:14:56.931Z,17.20
2022-12-24T10:17:23.755Z,17.30
2022-12-24T10:20:09.116Z,17.30
2022-12-24T10:22:59.291Z,17.30
2022-12-24T10:25:38.155Z,17.30
2022-12-24T10:28:16.952Z,17.40
2022-12-24T10:30:48.848Z,17.40
2022-12-24T10:33:29.334Z,17.40
2022-12-24T10:35:58.702Z,17.40
2022-12-24T10:38:26.764Z,17.50
2022-12-24T10:40:56.615Z,17.50
2022-12-24T10:43:26.276Z,17.50
2022-12-24T10:46:03.341Z,17.60
2022-12-24T10:48:46.399Z,17.60
2022-12-24T10:51:47.906Z,17.60
2022-12-24T10:54:22.577Z,17.60
2022-12-24T10:56:59.175Z,17.70
2022-12-24T10:59:30.911Z,17.70
2022-12-24T11:01:59.700Z,17.70
2022-12-24T11:04:29.832Z,17.80
2022-12-24T11:07:01.108Z,17.80
2022-12-24T11:09:29.868Z,17.80
2022-12-24T11:12:01.423Z,17.80
2022-12-24T11:14:38.696Z,17.80
2022-12-24T11:17:06.167Z,17.90
2022-12-24T11:19:35.918Z,17.90
2022-12-24T11:22:26.950Z,17.90
2022-12-24T11:25:27.773Z,17.90
2022-12-24T11:27:56.419Z,18.00
2022-12-24T11:30:30.182Z,18.00
2022-12-24T11:33:03.302Z,18.10
2022-12-24T11:35:33.245Z,18.10
2022-12-24T11:38:03.241Z,18.20
2022-12-24T11:40:41.206Z,18.20
2022-12-24T11:43:21.705Z,18.20
2022-12-24T11:45:56.956Z,18.30
2022-12-24T11:48:33.123Z,18.30
2022-12-24T11:51:18.788Z,18.40
2022-12-24T11:53:58.366Z,18.40
2022-12-24T11:56:37.675Z,18.40
2022-12-24T11:59:32.673Z,18.40
2022-12-24T12:02:20.799Z,18.50
2022-12-24T12:04:56.904Z,18.40
2022-12-24T12:07:36.781Z,18.50
2022-12-24T12:10:08.634Z,18.50
2022-12-24T12:12:41.041Z,18.60
2022-12-24T12:15:24.506Z,18.50
2022-12-24T12:17:57.001Z,18.50
2022-12-24T12:20:36.745Z,18.50
2022-12-24T12:23:03.513Z,18.60
2022-12-24T12:25:55.421Z,18.60
2022-12-24T12:28:25.910Z,18.60
2022-12-24T12:31:21.281Z,18.60
2022-12-24T12:34:18.285Z,18.60
2022-12-24T12:36:54.399Z,18.60
2022-12-24T12:39:21.282Z,18.60
2022-12-24T12:42:11.807Z,18.60
2022-12-24T12:44:57.219Z,18.60
2022-12-24T12:47:50.205Z,18.60
2022-12-24T12:50:48.955Z,18.60
2022-12-24T12:53:18.573Z,18.60
2022-12-24T12:56:06.683Z,18.60
2022-12-24T12:58:53.598Z,18.60
2022-12-24T13:01:26.024Z,18.60
2022-12-24T13:04:22.263Z,18.60
2022-12-24T13:07:00.895Z,18.60
2022-12-24T13:09:42.780Z,18.60
2022-12-24T13:12:47.746Z,18.70
2022-12-24T13:15:14.576Z,18.60
2022-12-24T13:17:56.491Z,18.70
2022-12-24T13:20:29.797Z,18.70
2022-12-24T13:23:21.572Z,18.70
2022-12-24T13:25:52.284Z,18.70
2022-12-24T13:28:25.013Z,18.70
2022-12-24T13:31:12.656Z,18.70
2022-12-24T13:33:39.456Z,18.70
2022-12-24T13:36:16.742Z,18.70
2022-12-24T13:38:57.357Z,18.70
2022-12-24T13:41:40.602Z,18.80
2022-12-24T13:44:12.802Z,18.70
2022-12-24T13:47:04.882Z,18.70
2022-12-24T13:49:46.024Z,18.80
2022-12-24T13:52:12.991Z,18.80
2022-12-24T13:54:44.009Z,18.70
2022-12-24T13:57:36.059Z,18.70
2022-12-24T14:00:20.656Z,18.70
2022-12-24T14:02:52.511Z,18.70
2022-12-24T14:05:42.480Z,18.70
2022-12-24T14:08:17.870Z,18.60
2022-12-24T14:10:58.262Z,18.70
2022-12-24T14:13:40.625Z,18.70
2022-12-24T14:16:42.227Z,18.60
2022-12-24T14:19:33.712Z,18.60
2022-12-24T14:22:18.140Z,18.60
2022-12-24T14:24:56.906Z,18.60
2022-12-24T14:27:38.668Z,18.60
2022-12-24T14:30:08.852Z,18.60
2022-12-24T14:32:38.151Z,18.60
2022-12-24T14:35:09.296Z,18.70
2022-12-24T14:37:36.775Z,18.70
2022-12-24T14:40:04.340Z,18.60
2022-12-24T14:42:58.549Z,18.60
2022-12-24T14:45:58.204Z,18.60
2022-12-24T14:48:43.634Z,18.60
2022-12-24T14:51:32.365Z,18.60
2022-12-24T14:54:23.740Z,18.60
2022-12-24T14:57:10.826Z,18.60
2022-12-24T14:59:42.523Z,18.60
2022-12-24T15:02:40.350Z,18.50
2022-12-24T15:05:20.058Z,18.50
2022-12-24T15:07:49.423Z,18.50
2022-12-24T15:10:37.664Z,18.50
2022-12-24T15:13:09.527Z,18.50
2022-12-24T15:15:36.878Z,18.50
2022-12-24T15:18:04.769Z,18.50
2022-12-24T15:20:31.896Z,18.50
2022-12-24T15:22:59.468Z,18.50
2022-12-24T15:25:30.197Z,18.50
2022-12-24T15:27:58.065Z,18.40
2022-12-24T15:30:28.354Z,18.40
2022-12-24T15:32:57.580Z,18.40
2022-12-24T15:35:50.494Z,18.40
2022-12-24T15:38:38.806Z,18.40
2022-12-24T15:41:17.167Z,18.30
2022-12-24T15:43:46.242Z,18.30
2022-12-24T15:46:25.034Z,18.30
2022-12-24T15:48:54.248Z,18.30
2022-12-24T15:51:34.650Z,18.30
2022-12-24T15:54:12.930Z,18.30
2022-12-24T15:56:45.044Z,18.30
2022-12-24T15:59:31.380Z,18.30
2022-12-24T16:02:27.394Z,18.30
2022-12-24T16:04:54.556Z,18.30
2022-12-24T16:07:26.145Z,18.30
2022-12-24T16:10:13.063Z,18.20
2022-12-24T16:12:40.065Z,18.20
2022-12-24T16:15:15.439Z,18.20
2022-12-24T16:17:49.043Z,18.20
2022-12-24T16:20:21.977Z,18.20
2022-12-24T16:22:50.375Z,18.20
2022-12-24T16:25:26.135Z,18.20
2022-12-24T16:27:53.801Z,18.20
2022-12-24T16:30:22.278Z,18.20
2022-12-24T16:32:50.999Z,18.20
2022-12-24T16:35:33.434Z,18.20
2022-12-24T16:38:00.384Z,18.10
2022-12-24T16:40:28.298Z,18.10
2022-12-24T16:43:15.506Z,18.10
2022-12-24T16:45:42.895Z,18.10
2022-12-24T16:48:14.294Z,18.10
2022-12-24T16:50:41.129Z,18.10
2022-12-24T16:53:17.396Z,18.10
2022-12-24T16:55:46.119Z,18.10
2022-12-24T16:58:16.456Z,18.10
2022-12-24T17:00:44.614Z,18.10
2022-12-24T17:03:12.296Z,18.10
2022-12-24T17:05:41.169Z,18.10
2022-12-24T17:08:08.475Z,18.10
2022-12-24T17:10:35.996Z,18.10
2022-12-24T17:13:03.220Z,18.00
2022-12-24T17:15:30.234Z,18.10
2022-12-24T17:17:57.257Z,18.10
2022-12-24T17:20:24.765Z,18.10
2022-12-24T17:22:52.104Z,18.10
2022-12-24T17:25:19.028Z,18.10
2022-12-24T17:27:45.950Z,18.10
2022-12-24T17:30:13.196Z,18.20
2022-12-24T17:32:40.123Z,18.20
2022-12-24T17:35:08.211Z,18.20
2022-12-24T17:37:35.075Z,18.20
2022-12-24T17:40:02.142Z,18.20
2022-12-24T17:42:29.057Z,18.20
2022-12-24T17:44:55.921Z,18.20
2022-12-24T17:47:22.855Z,18.30
2022-12-24T17:49:49.715Z,18.30
2022-12-24T17:52:16.631Z,18.30
2022-12-24T17:54:43.530Z,18.30
2022-12-24T17:57:10.355Z,18.30
2022-12-24T17:59:37.220Z,18.30
2022-12-24T18:02:04.194Z,18.40
2022-12-24T18:04:31.161Z,18.40
2022-12-24T18:07:02.499Z,18.40
2022-12-24T18:09:30.248Z,18.40
2022-12-24T18:11:57.103Z,18.40
2022-12-24T18:14:24.013Z,18.40
2022-12-24T18:16:51.037Z,18.50
2022-12-24T18:19:17.983Z,18.50
2022-12-24T18:21:44.858Z,18.50
2022-12-24T18:24:13.219Z,18.50
2022-12-24T18:26:40.290Z,18.50
2022-12-24T18:29:08.791Z,18.50
2022-12-24T18:31:36.495Z,18.40
2022-12-24T18:34:06.285Z,18.40
2022-12-24T18:36:33.622Z,18.50
2022-12-24T18:39:01.810Z,18.40
2022-12-24T18:41:30.594Z,18.40
2022-12-24T18:43:58.638Z,18.50
2022-12-24T18:46:28.524Z,18.40
2022-12-24T18:48:57.327Z,18.40
2022-12-24T18:51:27.444Z,18.40
2022-12-24T18:53:54.340Z,18.40
2022-12-24T18:56:24.163Z,18.40
2022-12-24T18:58:56.949Z,18.40
2022-12-24T19:01:26.553Z,18.40
2022-12-24T19:03:53.719Z,18.40
2022-12-24T19:06:21.508Z,18.40
2022-12-24T19:08:57.694Z,18.40
2022-12-24T19:11:26.465Z,18.40
2022-12-24T19:13:54.044Z,18.40
2022-12-24T19:16:21.772Z,18.40
2022-12-24T19:18:48.964Z,18.40
2022-12-24T19:21:17.431Z,18.40
2022-12-24T19:23:45.479Z,18.40
2022-12-24T19:26:13.884Z,18.50
2022-12-24T19:28:40.757Z,18.50
2022-12-24T19:31:10.584Z,18.50
2022-12-24T19:33:43.873Z,18.50
2022-12-24T19:36:13.522Z,18.50
2022-12-24T19:38:41.103Z,18.50
2022-12-24T19:41:12.800Z,18.50
2022-12-24T19:43:44.155Z,18.50
2022-12-24T19:46:14.359Z,18.50
2022-12-24T19:48:42.488Z,18.50
2022-12-24T19:51:11.891Z,18.60
2022-12-24T19:53:39.580Z,18.50
2022-12-24T19:56:06.808Z,18.60
2022-12-24T19:58:33.757Z,18.60
2022-12-24T20:01:15.732Z,18.60
2022-12-24T20:03:44.581Z,18.60
2022-12-24T20:06:12.756Z,18.60
2022-12-24T20:08:40.224Z,18.60
2022-12-24T20:11:13.466Z,18.60
2022-12-24T20:13:40.974Z,18.60
2022-12-24T20:16:19.875Z,18.60
2022-12-24T20:19:05.360Z,18.70
2022-12-24T20:21:32.809Z,18.60
2022-12-24T20:23:59.711Z,18.70
2022-12-24T20:26:28.931Z,18.70
2022-12-24T20:28:56.069Z,18.70
2022-12-24T20:31:28.534Z,18.70
2022-12-24T20:33:57.050Z,18.70
2022-12-24T20:36:24.867Z,18.70
2022-12-24T20:38:52.128Z,18.70
2022-12-24T20:41:21.512Z,18.70
2022-12-24T20:43:49.212Z,18.70
2022-12-24T20:46:21.385Z,18.70
2022-12-24T20:48:49.052Z,18.70
2022-12-24T20:51:23.844Z,18.70
2022-12-24T20:53:53.103Z,18.70
2022-12-24T20:56:20.247Z,18.70
2022-12-24T20:58:47.073Z,18.80
2022-12-24T21:01:24.710Z,18.70
2022-12-24T21:03:53.583Z,18.70
2022-12-24T21:06:20.647Z,18.80
2022-12-24T21:08:50.359Z,18.80
2022-12-24T21:11:36.333Z,18.80
2022-12-24T21:14:03.320Z,18.80
2022-12-24T21:16:35.462Z,18.80
2022-12-24T21:19:03.033Z,18.80
2022-12-24T21:21:29.930Z,18.80
2022-12-24T21:23:57.084Z,18.80
2022-12-24T21:26:24.358Z,18.80
2022-12-24T21:28:51.383Z,18.80
2022-12-24T21:31:18.644Z,18.80
2022-12-24T21:33:46.073Z,18.80
2022-12-24T21:36:14.533Z,18.80
2022-12-24T21:38:41.968Z,18.80
2022-12-24T21:41:15.824Z,18.80
2022-12-24T21:43:43.193Z,18.80
2022-12-24T21:46:23.226Z,18.80
2022-12-24T21:49:10.579Z,18.80
2022-12-24T21:51:38.991Z,18.90
2022-12-24T21:54:26.004Z,18.80
2022-12-24T21:57:14.542Z,18.80
2022-12-24T21:59:41.573Z,18.80
2022-12-24T22:02:11.963Z,18.80
2022-12-24T22:04:39.025Z,18.70
2022-12-24T22:07:25.074Z,18.70
2022-12-24T22:10:10.332Z,18.70
2022-12-24T22:12:37.271Z,18.70
2022-12-24T22:15:07.050Z,18.70
2022-12-24T22:17:33.908Z,18.70
2022-12-24T22:20:01.619Z,18.70
2022-12-24T22:22:28.497Z,18.70
2022-12-24T22:24:55.371Z,18.70
2022-12-24T22:27:23.611Z,18.70
2022-12-24T22:29:50.551Z,18.70
2022-12-24T22:32:17.575Z,18.70
2022-12-24T22:34:45.102Z,18.70
2022-12-24T22:37:12.047Z,18.70
2022-12-24T22:39:39.265Z,18.70
2022-12-24T22:42:06.208Z,18.60
2022-12-24T22:44:33.111Z,18.60
2022-12-24T22:46:59.996Z,18.60
2022-12-24T22:49:26.867Z,18.50
2022-12-24T22:51:57.043Z,18.50
2022-12-24T22:54:24.570Z,18.50
2022-12-24T22:56:51.428Z,18.50
2022-12-24T22:59:21.083Z,18.50
2022-12-24T23:01:48.768Z,18.50
2022-12-24T23:04:15.757Z,18.40
2022-12-24T23:06:43.558Z,18.40
2022-12-24T23:09:13.196Z,18.40
2022-12-24T23:11:40.883Z,18.40
2022-12-24T23:14:26.217Z,18.40
2022-12-24T23:16:53.150Z,18.40
2022-12-24T23:19:19.981Z,18.40
2022-12-24T23:21:46.879Z,18.30
2022-12-24T23:24:13.768Z,18.30
2022-12-24T23:26:40.719Z,18.30
2022-12-24T23:29:07.556Z,18.30
2022-12-24T23:31:37.895Z,18.20
2022-12-24T23:34:04.946Z,18.20
2022-12-24T23:36:31.837Z,18.10
2022-12-24T23:38:58.731Z,18.10
2022-12-24T23:41:25.728Z,18.10
2022-12-24T23:43:53.044Z,18.10
2022-12-24T23:46:21.351Z,18.00
2022-12-24T23:48:48.514Z,18.00
2022-12-24T23:51:17.820Z,18.00
2022-12-24T23:53:44.700Z,18.00
2022-12-24T23:56:12.736Z,17.90
2022-12-24T23:58:41.434Z,17.90
